sensor_id;sensor_type;location;lat;lon;timestamp;P1;durP1;ratioP1;P2;durP2;ratioP2
22211;SDS011;11275;52.488;13.462;2022-09-06T00:00:37;2.70;;;0.80;;
22211;SDS011;11275;52.488;13.462;2022-09-06T00:03:04;2.80;;;0.80;;
22211;SDS011;11275;52.488;13.462;2022-09-06T00:05:33;2.35;;;1.05;;
22211;SDS011;11275;52.488;13.462;2022-09-06T00:08:00;4.40;;;0.80;;
22211;SDS011;11275;52.488;13.462;2022-09-06T00:10:28;2.55;;;0.70;;
22211;SDS011;11275;52.488;13.462;2022-09-06T00:12:54;2.90;;;0.77;;
22211;SDS011;11275;52.488;13.462;2022-09-06T00:15:23;5.55;;;0.68;;
22211;SDS011;11275;52.488;13.462;2022-09-06T00:17:49;3.75;;;0.80;;
22211;SDS011;11275;52.488;13.462;2022-09-06T00:20:15;1.75;;;0.57;;
22211;SDS011;11275;52.488;13.462;2022-09-06T00:22:41;1.45;;;0.80;;
22211;SDS011;11275;52.488;13.462;2022-09-06T00:25:07;3.65;;;0.80;;
22211;SDS011;11275;52.488;13.462;2022-09-06T00:27:33;2.97;;;0.60;;
22211;SDS011;11275;52.488;13.462;2022-09-06T00:29:59;3.58;;;0.63;;
22211;SDS011;11275;52.488;13.462;2022-09-06T00:32:25;2.20;;;0.60;;
22211;SDS011;11275;52.488;13.462;2022-09-06T00:34:51;3.25;;;0.82;;
22211;SDS011;11275;52.488;13.462;2022-09-06T00:37:16;1.95;;;0.70;;
22211;SDS011;11275;52.488;13.462;2022-09-06T00:39:43;1.95;;;0.50;;
22211;SDS011;11275;52.488;13.462;2022-09-06T00:42:09;2.70;;;0.50;;
22211;SDS011;11275;52.488;13.462;2022-09-06T00:44:36;1.88;;;0.47;;
22211;SDS011;11275;52.488;13.462;2022-09-06T00:47:02;3.03;;;0.55;;
22211;SDS011;11275;52.488;13.462;2022-09-06T00:49:43;3.67;;;0.63;;
22211;SDS011;11275;52.488;13.462;2022-09-06T00:52:12;3.25;;;0.60;;
22211;SDS011;11275;52.488;13.462;2022-09-06T00:54:40;1.65;;;0.70;;
22211;SDS011;11275;52.488;13.462;2022-09-06T00:57:06;3.22;;;0.60;;
22211;SDS011;11275;52.488;13.462;2022-09-06T00:59:32;1.95;;;0.50;;
22211;SDS011;11275;52.488;13.462;2022-09-06T01:02:00;2.92;;;0.70;;
22211;SDS011;11275;52.488;13.462;2022-09-06T01:04:25;4.95;;;0.82;;
22211;SDS011;11275;52.488;13.462;2022-09-06T01:10:02;1.02;;;0.50;;
22211;SDS011;11275;52.488;13.462;2022-09-06T01:23:54;0.98;;;0.50;;
22211;SDS011;11275;52.488;13.462;2022-09-06T01:29:22;2.95;;;0.70;;
22211;SDS011;11275;52.488;13.462;2022-09-06T01:32:06;2.28;;;0.80;;
22211;SDS011;11275;52.488;13.462;2022-09-06T01:34:43;1.13;;;0.55;;
22211;SDS011;11275;52.488;13.462;2022-09-06T01:37:15;1.58;;;0.52;;
22211;SDS011;11275;52.488;13.462;2022-09-06T01:39:44;2.17;;;0.70;;
22211;SDS011;11275;52.488;13.462;2022-09-06T01:44:56;1.50;;;0.50;;
22211;SDS011;11275;52.488;13.462;2022-09-06T01:55:43;1.25;;;0.60;;
22211;SDS011;11275;52.488;13.462;2022-09-06T01:58:18;2.17;;;0.80;;
22211;SDS011;11275;52.488;13.462;2022-09-06T02:06:23;3.40;;;0.60;;
22211;SDS011;11275;52.488;13.462;2022-09-06T02:08:54;2.50;;;0.50;;
22211;SDS011;11275;52.488;13.462;2022-09-06T02:11:28;1.33;;;0.55;;
22211;SDS011;11275;52.488;13.462;2022-09-06T02:14:01;1.58;;;0.43;;
22211;SDS011;11275;52.488;13.462;2022-09-06T02:16:31;1.50;;;0.55;;
22211;SDS011;11275;52.488;13.462;2022-09-06T02:21:41;1.65;;;0.60;;
22211;SDS011;11275;52.488;13.462;2022-09-06T02:24:11;1.63;;;0.60;;
22211;SDS011;11275;52.488;13.462;2022-09-06T02:26:49;1.40;;;0.55;;
22211;SDS011;11275;52.488;13.462;2022-09-06T02:29:15;3.40;;;0.70;;
22211;SDS011;11275;52.488;13.462;2022-09-06T02:34:16;1.52;;;0.70;;
22211;SDS011;11275;52.488;13.462;2022-09-06T02:36:44;2.35;;;0.60;;
22211;SDS011;11275;52.488;13.462;2022-09-06T02:39:10;1.70;;;0.45;;
22211;SDS011;11275;52.488;13.462;2022-09-06T02:41:36;2.83;;;1.02;;
22211;SDS011;11275;52.488;13.462;2022-09-06T02:44:04;2.53;;;0.60;;
22211;SDS011;11275;52.488;13.462;2022-09-06T02:46:30;3.58;;;0.70;;
22211;SDS011;11275;52.488;13.462;2022-09-06T02:48:56;2.63;;;0.50;;
22211;SDS011;11275;52.488;13.462;2022-09-06T02:51:21;0.68;;;0.45;;
22211;SDS011;11275;52.488;13.462;2022-09-06T02:53:47;2.40;;;0.60;;
22211;SDS011;11275;52.488;13.462;2022-09-06T02:56:13;2.78;;;0.88;;
22211;SDS011;11275;52.488;13.462;2022-09-06T02:58:39;2.10;;;0.50;;
22211;SDS011;11275;52.488;13.462;2022-09-06T03:01:04;3.53;;;0.70;;
22211;SDS011;11275;52.488;13.462;2022-09-06T03:03:30;1.55;;;0.73;;
22211;SDS011;11275;52.488;13.462;2022-09-06T03:05:56;1.90;;;0.73;;
22211;SDS011;11275;52.488;13.462;2022-09-06T03:08:22;2.80;;;0.68;;
22211;SDS011;11275;52.488;13.462;2022-09-06T03:10:57;1.42;;;0.70;;
22211;SDS011;11275;52.488;13.462;2022-09-06T03:13:24;2.45;;;0.60;;
22211;SDS011;11275;52.488;13.462;2022-09-06T03:15:53;3.53;;;0.60;;
22211;SDS011;11275;52.488;13.462;2022-09-06T03:18:21;3.03;;;0.60;;
22211;SDS011;11275;52.488;13.462;2022-09-06T03:20:48;1.48;;;0.50;;
22211;SDS011;11275;52.488;13.462;2022-09-06T03:23:15;2.15;;;0.70;;
22211;SDS011;11275;52.488;13.462;2022-09-06T03:25:41;3.72;;;0.88;;
22211;SDS011;11275;52.488;13.462;2022-09-06T03:28:07;2.95;;;0.80;;
22211;SDS011;11275;52.488;13.462;2022-09-06T03:30:33;2.45;;;0.60;;
22211;SDS011;11275;52.488;13.462;2022-09-06T03:32:58;2.97;;;0.70;;
22211;SDS011;11275;52.488;13.462;2022-09-06T03:35:24;1.80;;;0.80;;
22211;SDS011;11275;52.488;13.462;2022-09-06T03:37:49;5.78;;;0.70;;
22211;SDS011;11275;52.488;13.462;2022-09-06T03:40:15;1.63;;;0.73;;
22211;SDS011;11275;52.488;13.462;2022-09-06T03:42:41;1.67;;;0.68;;
22211;SDS011;11275;52.488;13.462;2022-09-06T03:45:07;0.65;;;0.50;;
22211;SDS011;11275;52.488;13.462;2022-09-06T03:47:33;2.22;;;0.68;;
22211;SDS011;11275;52.488;13.462;2022-09-06T03:49:58;2.47;;;0.68;;
22211;SDS011;11275;52.488;13.462;2022-09-06T03:52:24;2.40;;;0.60;;
22211;SDS011;11275;52.488;13.462;2022-09-06T03:54:50;1.83;;;0.70;;
22211;SDS011;11275;52.488;13.462;2022-09-06T03:57:15;2.42;;;0.80;;
22211;SDS011;11275;52.488;13.462;2022-09-06T03:59:41;5.72;;;1.10;;
22211;SDS011;11275;52.488;13.462;2022-09-06T04:02:07;2.60;;;0.70;;
22211;SDS011;11275;52.488;13.462;2022-09-06T04:04:32;2.83;;;0.73;;
22211;SDS011;11275;52.488;13.462;2022-09-06T04:06:58;1.05;;;0.65;;
22211;SDS011;11275;52.488;13.462;2022-09-06T04:09:24;2.45;;;0.60;;
22211;SDS011;11275;52.488;13.462;2022-09-06T04:11:49;1.95;;;0.60;;
22211;SDS011;11275;52.488;13.462;2022-09-06T04:14:15;1.58;;;0.60;;
22211;SDS011;11275;52.488;13.462;2022-09-06T04:16:41;3.13;;;0.80;;
22211;SDS011;11275;52.488;13.462;2022-09-06T04:19:07;1.40;;;0.50;;
22211;SDS011;11275;52.488;13.462;2022-09-06T04:21:32;2.58;;;0.70;;
22211;SDS011;11275;52.488;13.462;2022-09-06T04:23:58;2.45;;;0.73;;
22211;SDS011;11275;52.488;13.462;2022-09-06T04:26:24;1.83;;;0.70;;
22211;SDS011;11275;52.488;13.462;2022-09-06T04:28:50;4.32;;;0.80;;
22211;SDS011;11275;52.488;13.462;2022-09-06T04:31:16;3.72;;;0.70;;
22211;SDS011;11275;52.488;13.462;2022-09-06T04:33:41;1.90;;;0.77;;
22211;SDS011;11275;52.488;13.462;2022-09-06T04:36:08;3.30;;;0.90;;
22211;SDS011;11275;52.488;13.462;2022-09-06T04:38:36;1.33;;;0.88;;
22211;SDS011;11275;52.488;13.462;2022-09-06T04:41:03;3.25;;;0.85;;
22211;SDS011;11275;52.488;13.462;2022-09-06T04:43:30;2.47;;;0.85;;
22211;SDS011;11275;52.488;13.462;2022-09-06T04:46:00;1.80;;;0.93;;
22211;SDS011;11275;52.488;13.462;2022-09-06T04:48:45;2.63;;;1.13;;
22211;SDS011;11275;52.488;13.462;2022-09-06T04:51:11;5.05;;;0.95;;
22211;SDS011;11275;52.488;13.462;2022-09-06T04:53:37;2.50;;;0.88;;
22211;SDS011;11275;52.488;13.462;2022-09-06T04:56:02;7.68;;;1.13;;
22211;SDS011;11275;52.488;13.462;2022-09-06T04:58:28;2.72;;;0.85;;
22211;SDS011;11275;52.488;13.462;2022-09-06T05:00:54;2.47;;;0.80;;
22211;SDS011;11275;52.488;13.462;2022-09-06T05:03:20;2.38;;;1.17;;
22211;SDS011;11275;52.488;13.462;2022-09-06T05:05:46;2.90;;;1.00;;
22211;SDS011;11275;52.488;13.462;2022-09-06T05:08:11;6.78;;;1.08;;
22211;SDS011;11275;52.488;13.462;2022-09-06T05:10:37;2.60;;;0.70;;
22211;SDS011;11275;52.488;13.462;2022-09-06T05:13:03;2.78;;;0.88;;
22211;SDS011;11275;52.488;13.462;2022-09-06T05:15:29;4.15;;;1.10;;
22211;SDS011;11275;52.488;13.462;2022-09-06T05:18:01;3.00;;;0.93;;
22211;SDS011;11275;52.488;13.462;2022-09-06T05:20:28;3.55;;;1.00;;
22211;SDS011;11275;52.488;13.462;2022-09-06T05:22:55;1.35;;;0.80;;
22211;SDS011;11275;52.488;13.462;2022-09-06T05:25:20;3.55;;;0.95;;
22211;SDS011;11275;52.488;13.462;2022-09-06T05:27:46;3.88;;;1.00;;
22211;SDS011;11275;52.488;13.462;2022-09-06T05:30:12;4.30;;;1.05;;
22211;SDS011;11275;52.488;13.462;2022-09-06T05:32:38;1.55;;;0.77;;
22211;SDS011;11275;52.488;13.462;2022-09-06T05:35:04;5.85;;;1.02;;
22211;SDS011;11275;52.488;13.462;2022-09-06T05:37:30;2.20;;;1.00;;
22211;SDS011;11275;52.488;13.462;2022-09-06T05:39:55;5.18;;;0.85;;
22211;SDS011;11275;52.488;13.462;2022-09-06T05:42:24;2.72;;;0.93;;
22211;SDS011;11275;52.488;13.462;2022-09-06T05:44:49;2.85;;;0.80;;
22211;SDS011;11275;52.488;13.462;2022-09-06T05:47:15;1.73;;;0.77;;
22211;SDS011;11275;52.488;13.462;2022-09-06T05:49:41;1.98;;;1.00;;
22211;SDS011;11275;52.488;13.462;2022-09-06T05:52:07;4.43;;;1.17;;
22211;SDS011;11275;52.488;13.462;2022-09-06T05:54:32;3.03;;;0.85;;
22211;SDS011;11275;52.488;13.462;2022-09-06T05:56:58;2.88;;;0.90;;
22211;SDS011;11275;52.488;13.462;2022-09-06T05:59:23;2.38;;;0.73;;
22211;SDS011;11275;52.488;13.462;2022-09-06T06:01:51;1.98;;;0.75;;
22211;SDS011;11275;52.488;13.462;2022-09-06T06:04:17;2.95;;;1.08;;
22211;SDS011;11275;52.488;13.462;2022-09-06T06:06:44;3.63;;;1.13;;
22211;SDS011;11275;52.488;13.462;2022-09-06T06:09:11;2.55;;;0.90;;
22211;SDS011;11275;52.488;13.462;2022-09-06T06:11:37;5.95;;;1.00;;
22211;SDS011;11275;52.488;13.462;2022-09-06T06:14:04;1.63;;;0.90;;
22211;SDS011;11275;52.488;13.462;2022-09-06T06:16:31;4.20;;;1.13;;
22211;SDS011;11275;52.488;13.462;2022-09-06T06:18:56;2.55;;;1.10;;
22211;SDS011;11275;52.488;13.462;2022-09-06T06:21:23;5.22;;;1.40;;
22211;SDS011;11275;52.488;13.462;2022-09-06T06:23:54;5.50;;;1.20;;
22211;SDS011;11275;52.488;13.462;2022-09-06T06:26:22;1.83;;;0.82;;
22211;SDS011;11275;52.488;13.462;2022-09-06T06:28:48;3.10;;;0.80;;
22211;SDS011;11275;52.488;13.462;2022-09-06T06:31:15;4.45;;;1.10;;
22211;SDS011;11275;52.488;13.462;2022-09-06T06:33:41;2.75;;;1.08;;
22211;SDS011;11275;52.488;13.462;2022-09-06T06:38:41;3.15;;;1.00;;
22211;SDS011;11275;52.488;13.462;2022-09-06T06:41:09;2.75;;;1.15;;
22211;SDS011;11275;52.488;13.462;2022-09-06T06:43:37;2.40;;;0.90;;
22211;SDS011;11275;52.488;13.462;2022-09-06T06:46:07;2.85;;;0.77;;
22211;SDS011;11275;52.488;13.462;2022-09-06T06:48:35;2.25;;;0.68;;
22211;SDS011;11275;52.488;13.462;2022-09-06T06:51:02;2.33;;;1.13;;
22211;SDS011;11275;52.488;13.462;2022-09-06T06:53:28;3.92;;;1.52;;
22211;SDS011;11275;52.488;13.462;2022-09-06T06:55:53;3.47;;;0.95;;
22211;SDS011;11275;52.488;13.462;2022-09-06T06:58:19;3.70;;;1.33;;
22211;SDS011;11275;52.488;13.462;2022-09-06T07:00:45;5.85;;;1.48;;
22211;SDS011;11275;52.488;13.462;2022-09-06T07:03:11;4.07;;;1.52;;
22211;SDS011;11275;52.488;13.462;2022-09-06T07:05:38;5.13;;;1.27;;
22211;SDS011;11275;52.488;13.462;2022-09-06T07:08:05;7.53;;;1.10;;
22211;SDS011;11275;52.488;13.462;2022-09-06T07:10:32;1.45;;;0.70;;
22211;SDS011;11275;52.488;13.462;2022-09-06T07:12:58;2.70;;;1.00;;
22211;SDS011;11275;52.488;13.462;2022-09-06T07:15:24;4.07;;;1.25;;
22211;SDS011;11275;52.488;13.462;2022-09-06T07:17:50;2.45;;;0.90;;
22211;SDS011;11275;52.488;13.462;2022-09-06T07:20:17;3.63;;;1.00;;
22211;SDS011;11275;52.488;13.462;2022-09-06T07:22:44;5.05;;;0.80;;
22211;SDS011;11275;52.488;13.462;2022-09-06T07:25:10;2.67;;;1.13;;
22211;SDS011;11275;52.488;13.462;2022-09-06T07:27:37;3.42;;;0.95;;
22211;SDS011;11275;52.488;13.462;2022-09-06T07:30:03;3.60;;;1.10;;
22211;SDS011;11275;52.488;13.462;2022-09-06T07:32:29;3.72;;;1.10;;
22211;SDS011;11275;52.488;13.462;2022-09-06T07:34:58;5.22;;;1.13;;
22211;SDS011;11275;52.488;13.462;2022-09-06T07:37:24;2.95;;;1.08;;
22211;SDS011;11275;52.488;13.462;2022-09-06T07:39:49;4.70;;;1.20;;
22211;SDS011;11275;52.488;13.462;2022-09-06T07:42:15;3.85;;;1.33;;
22211;SDS011;11275;52.488;13.462;2022-09-06T07:44:41;1.75;;;1.00;;
22211;SDS011;11275;52.488;13.462;2022-09-06T07:47:07;3.33;;;1.10;;
22211;SDS011;11275;52.488;13.462;2022-09-06T07:49:34;3.97;;;1.80;;
22211;SDS011;11275;52.488;13.462;2022-09-06T07:52:00;5.28;;;1.25;;
22211;SDS011;11275;52.488;13.462;2022-09-06T07:54:26;3.63;;;1.20;;
22211;SDS011;11275;52.488;13.462;2022-09-06T07:56:51;3.53;;;1.10;;
22211;SDS011;11275;52.488;13.462;2022-09-06T07:59:17;5.47;;;1.08;;
22211;SDS011;11275;52.488;13.462;2022-09-06T08:01:43;5.18;;;1.20;;
22211;SDS011;11275;52.488;13.462;2022-09-06T08:04:09;4.13;;;1.40;;
22211;SDS011;11275;52.488;13.462;2022-09-06T08:06:41;5.93;;;1.35;;
22211;SDS011;11275;52.488;13.462;2022-09-06T08:09:09;7.45;;;1.42;;
22211;SDS011;11275;52.488;13.462;2022-09-06T08:11:36;5.63;;;1.30;;
22211;SDS011;11275;52.488;13.462;2022-09-06T08:14:03;2.22;;;1.20;;
22211;SDS011;11275;52.488;13.462;2022-09-06T08:16:30;4.55;;;1.55;;
22211;SDS011;11275;52.488;13.462;2022-09-06T08:19:02;4.70;;;1.40;;
22211;SDS011;11275;52.488;13.462;2022-09-06T08:21:32;4.47;;;1.33;;
22211;SDS011;11275;52.488;13.462;2022-09-06T08:23:59;5.82;;;1.40;;
22211;SDS011;11275;52.488;13.462;2022-09-06T08:26:27;2.92;;;1.10;;
22211;SDS011;11275;52.488;13.462;2022-09-06T08:28:54;2.53;;;1.10;;
22211;SDS011;11275;52.488;13.462;2022-09-06T08:31:24;3.17;;;1.27;;
22211;SDS011;11275;52.488;13.462;2022-09-06T08:33:51;2.28;;;1.10;;
22211;SDS011;11275;52.488;13.462;2022-09-06T08:36:17;4.50;;;1.40;;
22211;SDS011;11275;52.488;13.462;2022-09-06T08:38:43;3.13;;;1.42;;
22211;SDS011;11275;52.488;13.462;2022-09-06T08:43:38;1.85;;;1.00;;
22211;SDS011;11275;52.488;13.462;2022-09-06T08:46:13;2.47;;;1.20;;
22211;SDS011;11275;52.488;13.462;2022-09-06T08:48:41;4.20;;;1.45;;
22211;SDS011;11275;52.488;13.462;2022-09-06T08:51:15;6.15;;;1.45;;
22211;SDS011;11275;52.488;13.462;2022-09-06T08:59:39;4.40;;;1.48;;
22211;SDS011;11275;52.488;13.462;2022-09-06T09:02:19;3.90;;;1.33;;
22211;SDS011;11275;52.488;13.462;2022-09-06T09:04:47;11.02;;;1.70;;
22211;SDS011;11275;52.488;13.462;2022-09-06T09:10:08;5.78;;;2.20;;
22211;SDS011;11275;52.488;13.462;2022-09-06T09:12:45;6.87;;;1.60;;
22211;SDS011;11275;52.488;13.462;2022-09-06T09:15:16;4.20;;;1.50;;
22211;SDS011;11275;52.488;13.462;2022-09-06T09:17:43;6.20;;;1.77;;
22211;SDS011;11275;52.488;13.462;2022-09-06T09:20:10;3.55;;;1.52;;
22211;SDS011;11275;52.488;13.462;2022-09-06T09:22:37;3.08;;;1.38;;
22211;SDS011;11275;52.488;13.462;2022-09-06T09:25:04;4.15;;;1.50;;
22211;SDS011;11275;52.488;13.462;2022-09-06T09:27:32;2.65;;;1.20;;
22211;SDS011;11275;52.488;13.462;2022-09-06T09:29:59;2.92;;;1.35;;
22211;SDS011;11275;52.488;13.462;2022-09-06T09:37:40;15.57;;;9.15;;
22211;SDS011;11275;52.488;13.462;2022-09-06T09:40:06;5.18;;;1.15;;
22211;SDS011;11275;52.488;13.462;2022-09-06T09:42:39;3.35;;;1.30;;
22211;SDS011;11275;52.488;13.462;2022-09-06T09:45:18;6.88;;;2.15;;
22211;SDS011;11275;52.488;13.462;2022-09-06T09:47:53;6.50;;;1.92;;
22211;SDS011;11275;52.488;13.462;2022-09-06T09:50:27;5.60;;;1.40;;
22211;SDS011;11275;52.488;13.462;2022-09-06T09:52:54;4.30;;;1.60;;
22211;SDS011;11275;52.488;13.462;2022-09-06T09:55:21;5.13;;;1.67;;
22211;SDS011;11275;52.488;13.462;2022-09-06T09:57:49;4.18;;;1.42;;
22211;SDS011;11275;52.488;13.462;2022-09-06T10:00:30;3.65;;;1.90;;
22211;SDS011;11275;52.488;13.462;2022-09-06T10:03:16;3.05;;;1.60;;
22211;SDS011;11275;52.488;13.462;2022-09-06T10:05:56;5.60;;;1.60;;
22211;SDS011;11275;52.488;13.462;2022-09-06T10:08:24;8.13;;;2.35;;
22211;SDS011;11275;52.488;13.462;2022-09-06T10:10:51;3.88;;;1.83;;
22211;SDS011;11275;52.488;13.462;2022-09-06T10:15:45;3.78;;;1.77;;
22211;SDS011;11275;52.488;13.462;2022-09-06T10:18:31;3.58;;;1.70;;
22211;SDS011;11275;52.488;13.462;2022-09-06T10:21:14;5.90;;;1.70;;
22211;SDS011;11275;52.488;13.462;2022-09-06T10:28:50;3.35;;;1.90;;
22211;SDS011;11275;52.488;13.462;2022-09-06T10:48:29;3.88;;;1.90;;
22211;SDS011;11275;52.488;13.462;2022-09-06T10:50:56;3.38;;;1.85;;
22211;SDS011;11275;52.488;13.462;2022-09-06T10:53:33;5.05;;;1.92;;
22211;SDS011;11275;52.488;13.462;2022-09-06T10:58:58;5.72;;;2.10;;
22211;SDS011;11275;52.488;13.462;2022-09-06T11:01:37;6.50;;;2.10;;
22211;SDS011;11275;52.488;13.462;2022-09-06T11:04:13;7.93;;;2.10;;
22211;SDS011;11275;52.488;13.462;2022-09-06T11:06:50;6.18;;;2.20;;
22211;SDS011;11275;52.488;13.462;2022-09-06T11:09:22;5.90;;;2.00;;
22211;SDS011;11275;52.488;13.462;2022-09-06T11:15:12;4.00;;;1.73;;
22211;SDS011;11275;52.488;13.462;2022-09-06T11:17:54;4.32;;;1.70;;
22211;SDS011;11275;52.488;13.462;2022-09-06T11:20:32;3.72;;;1.98;;
22211;SDS011;11275;52.488;13.462;2022-09-06T11:23:47;4.20;;;1.85;;
22211;SDS011;11275;52.488;13.462;2022-09-06T11:26:17;3.60;;;1.77;;
22211;SDS011;11275;52.488;13.462;2022-09-06T11:28:57;6.82;;;2.00;;
22211;SDS011;11275;52.488;13.462;2022-09-06T11:31:28;4.50;;;2.05;;
22211;SDS011;11275;52.488;13.462;2022-09-06T11:39:22;2.80;;;1.98;;
22211;SDS011;11275;52.488;13.462;2022-09-06T11:41:56;7.75;;;1.92;;
22211;SDS011;11275;52.488;13.462;2022-09-06T11:53:18;4.50;;;1.95;;
22211;SDS011;11275;52.488;13.462;2022-09-06T12:08:54;6.90;;;2.00;;
22211;SDS011;11275;52.488;13.462;2022-09-06T12:11:21;3.25;;;2.03;;
22211;SDS011;11275;52.488;13.462;2022-09-06T12:14:01;6.83;;;2.40;;
22211;SDS011;11275;52.488;13.462;2022-09-06T12:25:16;3.75;;;2.00;;
22211;SDS011;11275;52.488;13.462;2022-09-06T12:27:58;5.47;;;2.05;;
22211;SDS011;11275;52.488;13.462;2022-09-06T12:30:46;7.55;;;2.15;;
22211;SDS011;11275;52.488;13.462;2022-09-06T12:33:15;5.65;;;2.10;;
22211;SDS011;11275;52.488;13.462;2022-09-06T12:35:48;6.10;;;2.10;;
22211;SDS011;11275;52.488;13.462;2022-09-06T12:38:15;5.65;;;2.10;;
22211;SDS011;11275;52.488;13.462;2022-09-06T12:40:47;7.65;;;2.17;;
22211;SDS011;11275;52.488;13.462;2022-09-06T12:43:16;2.60;;;1.90;;
22211;SDS011;11275;52.488;13.462;2022-09-06T12:45:44;6.70;;;1.92;;
22211;SDS011;11275;52.488;13.462;2022-09-06T12:48:25;4.90;;;2.03;;
22211;SDS011;11275;52.488;13.462;2022-09-06T12:51:01;3.55;;;2.05;;
22211;SDS011;11275;52.488;13.462;2022-09-06T12:53:28;4.45;;;2.17;;
22211;SDS011;11275;52.488;13.462;2022-09-06T12:56:08;6.55;;;2.03;;
22211;SDS011;11275;52.488;13.462;2022-09-06T12:58:38;3.00;;;1.90;;
22211;SDS011;11275;52.488;13.462;2022-09-06T13:03:40;3.15;;;2.30;;
22211;SDS011;11275;52.488;13.462;2022-09-06T13:06:11;4.28;;;2.03;;
22211;SDS011;11275;52.488;13.462;2022-09-06T13:08:49;4.78;;;2.03;;
22211;SDS011;11275;52.488;13.462;2022-09-06T13:11:20;4.18;;;2.15;;
22211;SDS011;11275;52.488;13.462;2022-09-06T13:13:53;4.28;;;2.20;;
22211;SDS011;11275;52.488;13.462;2022-09-06T13:16:27;2.92;;;2.10;;
22211;SDS011;11275;52.488;13.462;2022-09-06T13:19:14;6.53;;;2.13;;
22211;SDS011;11275;52.488;13.462;2022-09-06T13:21:42;4.68;;;2.42;;
22211;SDS011;11275;52.488;13.462;2022-09-06T13:24:19;3.17;;;2.17;;
22211;SDS011;11275;52.488;13.462;2022-09-06T13:27:21;3.65;;;2.05;;
22211;SDS011;11275;52.488;13.462;2022-09-06T13:29:53;4.95;;;2.00;;
22211;SDS011;11275;52.488;13.462;2022-09-06T13:32:45;5.65;;;2.58;;
22211;SDS011;11275;52.488;13.462;2022-09-06T13:35:21;3.63;;;2.20;;
22211;SDS011;11275;52.488;13.462;2022-09-06T13:38:17;4.88;;;2.13;;
22211;SDS011;11275;52.488;13.462;2022-09-06T13:40:57;4.00;;;2.38;;
22211;SDS011;11275;52.488;13.462;2022-09-06T13:43:24;3.10;;;2.22;;
22211;SDS011;11275;52.488;13.462;2022-09-06T13:46:08;4.50;;;2.10;;
22211;SDS011;11275;52.488;13.462;2022-09-06T13:48:35;4.80;;;2.15;;
22211;SDS011;11275;52.488;13.462;2022-09-06T13:51:04;3.95;;;2.20;;
22211;SDS011;11275;52.488;13.462;2022-09-06T13:53:31;3.53;;;2.35;;
22211;SDS011;11275;52.488;13.462;2022-09-06T13:55:57;3.97;;;2.33;;
22211;SDS011;11275;52.488;13.462;2022-09-06T13:58:23;5.72;;;2.65;;
22211;SDS011;11275;52.488;13.462;2022-09-06T14:00:49;4.80;;;2.40;;
22211;SDS011;11275;52.488;13.462;2022-09-06T14:03:36;4.20;;;2.20;;
22211;SDS011;11275;52.488;13.462;2022-09-06T14:06:04;5.53;;;2.63;;
22211;SDS011;11275;52.488;13.462;2022-09-06T14:08:31;4.05;;;2.33;;
22211;SDS011;11275;52.488;13.462;2022-09-06T14:10:56;4.40;;;2.30;;
22211;SDS011;11275;52.488;13.462;2022-09-06T14:13:22;3.47;;;2.33;;
22211;SDS011;11275;52.488;13.462;2022-09-06T14:15:48;3.35;;;2.17;;
22211;SDS011;11275;52.488;13.462;2022-09-06T14:18:14;4.30;;;2.45;;
22211;SDS011;11275;52.488;13.462;2022-09-06T14:20:40;6.13;;;2.28;;
22211;SDS011;11275;52.488;13.462;2022-09-06T14:23:07;3.60;;;2.17;;
22211;SDS011;11275;52.488;13.462;2022-09-06T14:25:34;4.88;;;2.20;;
22211;SDS011;11275;52.488;13.462;2022-09-06T14:28:01;4.40;;;2.10;;
22211;SDS011;11275;52.488;13.462;2022-09-06T14:30:28;4.15;;;2.50;;
22211;SDS011;11275;52.488;13.462;2022-09-06T14:32:54;4.80;;;2.72;;
22211;SDS011;11275;52.488;13.462;2022-09-06T14:35:20;4.65;;;2.63;;
22211;SDS011;11275;52.488;13.462;2022-09-06T14:37:45;3.92;;;2.35;;
22211;SDS011;11275;52.488;13.462;2022-09-06T14:40:11;7.38;;;3.25;;
22211;SDS011;11275;52.488;13.462;2022-09-06T14:42:38;3.50;;;2.30;;
22211;SDS011;11275;52.488;13.462;2022-09-06T14:45:04;6.10;;;3.10;;
22211;SDS011;11275;52.488;13.462;2022-09-06T14:47:30;8.35;;;3.42;;
22211;SDS011;11275;52.488;13.462;2022-09-06T14:49:57;3.03;;;2.47;;
22211;SDS011;11275;52.488;13.462;2022-09-06T14:52:23;5.55;;;3.30;;
22211;SDS011;11275;52.488;13.462;2022-09-06T14:54:48;3.67;;;2.20;;
22211;SDS011;11275;52.488;13.462;2022-09-06T14:57:14;4.32;;;2.45;;
22211;SDS011;11275;52.488;13.462;2022-09-06T14:59:40;6.90;;;2.20;;
22211;SDS011;11275;52.488;13.462;2022-09-06T15:02:05;4.55;;;2.30;;
22211;SDS011;11275;52.488;13.462;2022-09-06T15:04:31;5.75;;;2.30;;
22211;SDS011;11275;52.488;13.462;2022-09-06T15:06:57;6.85;;;2.88;;
22211;SDS011;11275;52.488;13.462;2022-09-06T15:09:23;4.60;;;2.35;;
22211;SDS011;11275;52.488;13.462;2022-09-06T15:11:50;3.67;;;2.00;;
22211;SDS011;11275;52.488;13.462;2022-09-06T15:14:17;3.72;;;2.20;;
22211;SDS011;11275;52.488;13.462;2022-09-06T15:16:44;3.25;;;2.30;;
22211;SDS011;11275;52.488;13.462;2022-09-06T15:19:11;4.25;;;2.20;;
22211;SDS011;11275;52.488;13.462;2022-09-06T15:21:37;3.33;;;2.30;;
22211;SDS011;11275;52.488;13.462;2022-09-06T15:24:03;5.03;;;2.40;;
22211;SDS011;11275;52.488;13.462;2022-09-06T15:26:30;5.10;;;2.50;;
22211;SDS011;11275;52.488;13.462;2022-09-06T15:28:57;4.03;;;2.45;;
22211;SDS011;11275;52.488;13.462;2022-09-06T15:31:23;3.28;;;2.08;;
22211;SDS011;11275;52.488;13.462;2022-09-06T15:33:49;5.28;;;2.50;;
22211;SDS011;11275;52.488;13.462;2022-09-06T15:36:16;5.30;;;2.17;;
22211;SDS011;11275;52.488;13.462;2022-09-06T15:38:42;4.82;;;2.90;;
22211;SDS011;11275;52.488;13.462;2022-09-06T15:41:13;5.43;;;2.50;;
22211;SDS011;11275;52.488;13.462;2022-09-06T15:43:41;4.40;;;2.53;;
22211;SDS011;11275;52.488;13.462;2022-09-06T15:46:11;7.80;;;2.50;;
22211;SDS011;11275;52.488;13.462;2022-09-06T15:48:50;5.40;;;2.38;;
22211;SDS011;11275;52.488;13.462;2022-09-06T15:51:18;6.18;;;2.78;;
22211;SDS011;11275;52.488;13.462;2022-09-06T15:53:44;3.22;;;2.42;;
22211;SDS011;11275;52.488;13.462;2022-09-06T15:56:12;4.43;;;2.38;;
22211;SDS011;11275;52.488;13.462;2022-09-06T15:58:38;4.70;;;2.40;;
22211;SDS011;11275;52.488;13.462;2022-09-06T16:01:18;4.50;;;2.63;;
22211;SDS011;11275;52.488;13.462;2022-09-06T16:03:51;3.25;;;2.33;;
22211;SDS011;11275;52.488;13.462;2022-09-06T16:06:27;3.33;;;2.00;;
22211;SDS011;11275;52.488;13.462;2022-09-06T16:08:56;3.95;;;2.53;;
22211;SDS011;11275;52.488;13.462;2022-09-06T16:11:23;4.78;;;2.55;;
22211;SDS011;11275;52.488;13.462;2022-09-06T16:13:49;4.72;;;2.22;;
22211;SDS011;11275;52.488;13.462;2022-09-06T16:16:15;5.95;;;2.03;;
22211;SDS011;11275;52.488;13.462;2022-09-06T16:18:41;7.53;;;3.05;;
22211;SDS011;11275;52.488;13.462;2022-09-06T16:21:10;4.22;;;2.10;;
22211;SDS011;11275;52.488;13.462;2022-09-06T16:23:38;6.57;;;2.40;;
22211;SDS011;11275;52.488;13.462;2022-09-06T16:26:05;8.93;;;2.45;;
22211;SDS011;11275;52.488;13.462;2022-09-06T16:28:33;3.35;;;2.20;;
22211;SDS011;11275;52.488;13.462;2022-09-06T16:31:00;5.63;;;2.95;;
22211;SDS011;11275;52.488;13.462;2022-09-06T16:33:27;4.70;;;2.97;;
22211;SDS011;11275;52.488;13.462;2022-09-06T16:35:54;7.40;;;2.42;;
22211;SDS011;11275;52.488;13.462;2022-09-06T16:38:22;3.22;;;2.15;;
22211;SDS011;11275;52.488;13.462;2022-09-06T16:40:48;6.65;;;2.17;;
22211;SDS011;11275;52.488;13.462;2022-09-06T16:43:14;6.47;;;2.20;;
22211;SDS011;11275;52.488;13.462;2022-09-06T16:45:40;4.57;;;2.90;;
22211;SDS011;11275;52.488;13.462;2022-09-06T16:48:05;5.80;;;2.45;;
22211;SDS011;11275;52.488;13.462;2022-09-06T16:50:32;5.13;;;2.58;;